sensor_id;sensor_type;location;lat;lon;timestamp;P1;durP1;ratioP1;P2;durP2;ratioP2
16270;SDS011;8243;49.048;8.396;2023-02-15T00:01:30;194.00;;;29.27;;
16270;SDS011;8243;49.048;8.396;2023-02-15T00:03:56;152.70;;;28.87;;
16270;SDS011;8243;49.048;8.396;2023-02-15T00:06:22;132.77;;;27.30;;
16270;SDS011;8243;49.048;8.396;2023-02-15T00:08:48;152.63;;;28.23;;
16270;SDS011;8243;49.048;8.396;2023-02-15T00:11:14;128.10;;;29.27;;
16270;SDS011;8243;49.048;8.396;2023-02-15T00:13:42;87.97;;;26.70;;
16270;SDS011;8243;49.048;8.396;2023-02-15T00:16:09;283.50;;;33.47;;
16270;SDS011;8243;49.048;8.396;2023-02-15T00:18:36;180.30;;;29.83;;
16270;SDS011;8243;49.048;8.396;2023-02-15T00:21:06;183.17;;;29.87;;
16270;SDS011;8243;49.048;8.396;2023-02-15T00:23:33;138.50;;;28.50;;
16270;SDS011;8243;49.048;8.396;2023-02-15T00:26:03;95.73;;;26.70;;
16270;SDS011;8243;49.048;8.396;2023-02-15T00:28:32;120.57;;;29.17;;
16270;SDS011;8243;49.048;8.396;2023-02-15T00:31:16;161.03;;;30.97;;
16270;SDS011;8243;49.048;8.396;2023-02-15T00:33:42;126.93;;;29.20;;
16270;SDS011;8243;49.048;8.396;2023-02-15T00:36:08;99.00;;;27.23;;
16270;SDS011;8243;49.048;8.396;2023-02-15T00:38:35;100.30;;;25.83;;
16270;SDS011;8243;49.048;8.396;2023-02-15T00:41:02;55.43;;;25.67;;
16270;SDS011;8243;49.048;8.396;2023-02-15T00:43:30;209.43;;;30.90;;
16270;SDS011;8243;49.048;8.396;2023-02-15T00:45:58;62.20;;;25.13;;
16270;SDS011;8243;49.048;8.396;2023-02-15T00:48:24;60.00;;;25.93;;
16270;SDS011;8243;49.048;8.396;2023-02-15T00:50:50;70.13;;;27.67;;
16270;SDS011;8243;49.048;8.396;2023-02-15T00:53:17;78.30;;;27.90;;
16270;SDS011;8243;49.048;8.396;2023-02-15T00:55:43;77.30;;;25.73;;
16270;SDS011;8243;49.048;8.396;2023-02-15T00:58:09;88.93;;;27.77;;
16270;SDS011;8243;49.048;8.396;2023-02-15T01:00:35;78.40;;;27.40;;
16270;SDS011;8243;49.048;8.396;2023-02-15T01:03:02;85.90;;;27.53;;
16270;SDS011;8243;49.048;8.396;2023-02-15T01:05:27;151.97;;;30.03;;
16270;SDS011;8243;49.048;8.396;2023-02-15T01:07:54;64.67;;;27.60;;
16270;SDS011;8243;49.048;8.396;2023-02-15T01:10:20;74.70;;;27.03;;
16270;SDS011;8243;49.048;8.396;2023-02-15T01:12:46;87.80;;;27.73;;
16270;SDS011;8243;49.048;8.396;2023-02-15T01:15:12;78.70;;;27.10;;
16270;SDS011;8243;49.048;8.396;2023-02-15T01:17:37;72.53;;;26.57;;
16270;SDS011;8243;49.048;8.396;2023-02-15T01:20:03;61.60;;;24.97;;
16270;SDS011;8243;49.048;8.396;2023-02-15T01:22:29;54.37;;;24.33;;
16270;SDS011;8243;49.048;8.396;2023-02-15T01:24:55;45.60;;;23.30;;
16270;SDS011;8243;49.048;8.396;2023-02-15T01:27:20;51.10;;;22.90;;
16270;SDS011;8243;49.048;8.396;2023-02-15T01:29:46;110.10;;;28.03;;
16270;SDS011;8243;49.048;8.396;2023-02-15T01:32:12;95.30;;;26.63;;
16270;SDS011;8243;49.048;8.396;2023-02-15T01:34:38;106.03;;;26.87;;
16270;SDS011;8243;49.048;8.396;2023-02-15T01:37:03;64.90;;;25.63;;
16270;SDS011;8243;49.048;8.396;2023-02-15T01:39:29;102.30;;;26.10;;
16270;SDS011;8243;49.048;8.396;2023-02-15T01:41:54;70.47;;;23.27;;
16270;SDS011;8243;49.048;8.396;2023-02-15T01:47:16;49.80;;;21.87;;
16270;SDS011;8243;49.048;8.396;2023-02-15T01:50:07;103.73;;;23.20;;
16270;SDS011;8243;49.048;8.396;2023-02-15T01:52:46;51.60;;;22.40;;
16270;SDS011;8243;49.048;8.396;2023-02-15T01:55:17;114.13;;;24.23;;
16270;SDS011;8243;49.048;8.396;2023-02-15T01:57:43;118.03;;;25.70;;
16270;SDS011;8243;49.048;8.396;2023-02-15T02:00:11;65.47;;;22.17;;
16270;SDS011;8243;49.048;8.396;2023-02-15T02:02:39;54.07;;;23.57;;
16270;SDS011;8243;49.048;8.396;2023-02-15T02:05:07;51.63;;;21.43;;
16270;SDS011;8243;49.048;8.396;2023-02-15T02:07:34;46.03;;;22.83;;
16270;SDS011;8243;49.048;8.396;2023-02-15T02:10:04;77.33;;;24.70;;
16270;SDS011;8243;49.048;8.396;2023-02-15T02:12:31;120.07;;;25.37;;
16270;SDS011;8243;49.048;8.396;2023-02-15T02:14:58;60.83;;;22.27;;
16270;SDS011;8243;49.048;8.396;2023-02-15T02:17:31;41.13;;;19.97;;
16270;SDS011;8243;49.048;8.396;2023-02-15T02:25:51;68.23;;;20.73;;
16270;SDS011;8243;49.048;8.396;2023-02-15T02:31:39;33.07;;;19.43;;
16270;SDS011;8243;49.048;8.396;2023-02-15T02:37:12;44.50;;;20.13;;
16270;SDS011;8243;49.048;8.396;2023-02-15T02:40:03;33.47;;;19.10;;
16270;SDS011;8243;49.048;8.396;2023-02-15T02:42:35;52.13;;;19.97;;
16270;SDS011;8243;49.048;8.396;2023-02-15T02:47:45;40.10;;;19.70;;
16270;SDS011;8243;49.048;8.396;2023-02-15T02:50:16;38.87;;;18.47;;
16270;SDS011;8243;49.048;8.396;2023-02-15T02:52:47;34.53;;;16.77;;
16270;SDS011;8243;49.048;8.396;2023-02-15T02:57:53;30.47;;;18.00;;
16270;SDS011;8243;49.048;8.396;2023-02-15T03:00:21;30.17;;;18.63;;
16270;SDS011;8243;49.048;8.396;2023-02-15T03:02:48;46.17;;;18.00;;
16270;SDS011;8243;49.048;8.396;2023-02-15T03:05:23;38.43;;;18.07;;
16270;SDS011;8243;49.048;8.396;2023-02-15T03:07:52;37.67;;;17.53;;
16270;SDS011;8243;49.048;8.396;2023-02-15T03:10:22;28.03;;;16.50;;
16270;SDS011;8243;49.048;8.396;2023-02-15T03:12:49;36.83;;;17.27;;
16270;SDS011;8243;49.048;8.396;2023-02-15T03:15:19;36.87;;;18.43;;
16270;SDS011;8243;49.048;8.396;2023-02-15T03:17:55;36.87;;;17.27;;
16270;SDS011;8243;49.048;8.396;2023-02-15T03:20:28;26.70;;;16.43;;
16270;SDS011;8243;49.048;8.396;2023-02-15T03:22:58;32.40;;;16.53;;
16270;SDS011;8243;49.048;8.396;2023-02-15T03:25:30;38.67;;;16.73;;
16270;SDS011;8243;49.048;8.396;2023-02-15T03:27:59;35.60;;;18.90;;
16270;SDS011;8243;49.048;8.396;2023-02-15T03:30:30;30.77;;;17.80;;
16270;SDS011;8243;49.048;8.396;2023-02-15T03:32:59;35.30;;;18.47;;
16270;SDS011;8243;49.048;8.396;2023-02-15T03:35:26;35.20;;;18.97;;
16270;SDS011;8243;49.048;8.396;2023-02-15T03:38:01;40.77;;;18.93;;
16270;SDS011;8243;49.048;8.396;2023-02-15T03:40:31;36.33;;;20.23;;
16270;SDS011;8243;49.048;8.396;2023-02-15T03:46:25;37.60;;;19.03;;
16270;SDS011;8243;49.048;8.396;2023-02-15T03:49:02;46.50;;;19.57;;
16270;SDS011;8243;49.048;8.396;2023-02-15T03:51:29;44.97;;;20.10;;
16270;SDS011;8243;49.048;8.396;2023-02-15T03:54:04;56.70;;;19.97;;
16270;SDS011;8243;49.048;8.396;2023-02-15T03:56:36;61.80;;;21.27;;
16270;SDS011;8243;49.048;8.396;2023-02-15T03:59:03;58.30;;;21.43;;
16270;SDS011;8243;49.048;8.396;2023-02-15T04:02:00;78.33;;;19.73;;
16270;SDS011;8243;49.048;8.396;2023-02-15T04:04:48;65.60;;;20.67;;
16270;SDS011;8243;49.048;8.396;2023-02-15T04:07:14;43.53;;;20.47;;
16270;SDS011;8243;49.048;8.396;2023-02-15T04:09:40;40.67;;;19.50;;
16270;SDS011;8243;49.048;8.396;2023-02-15T04:12:23;44.47;;;20.27;;
16270;SDS011;8243;49.048;8.396;2023-02-15T04:14:49;42.97;;;21.10;;
16270;SDS011;8243;49.048;8.396;2023-02-15T04:17:35;64.77;;;20.57;;
16270;SDS011;8243;49.048;8.396;2023-02-15T04:20:01;52.83;;;20.07;;
16270;SDS011;8243;49.048;8.396;2023-02-15T04:22:45;40.67;;;18.63;;
16270;SDS011;8243;49.048;8.396;2023-02-15T04:25:30;109.20;;;21.97;;
16270;SDS011;8243;49.048;8.396;2023-02-15T04:27:55;39.70;;;19.03;;
16270;SDS011;8243;49.048;8.396;2023-02-15T04:30:22;32.30;;;17.97;;
16270;SDS011;8243;49.048;8.396;2023-02-15T04:32:49;42.60;;;19.50;;
16270;SDS011;8243;49.048;8.396;2023-02-15T04:35:16;62.00;;;19.53;;
16270;SDS011;8243;49.048;8.396;2023-02-15T04:37:42;44.13;;;19.27;;
16270;SDS011;8243;49.048;8.396;2023-02-15T04:40:09;56.37;;;20.93;;
16270;SDS011;8243;49.048;8.396;2023-02-15T04:42:37;41.67;;;20.10;;
16270;SDS011;8243;49.048;8.396;2023-02-15T04:45:03;44.57;;;18.43;;
16270;SDS011;8243;49.048;8.396;2023-02-15T04:47:28;79.67;;;20.27;;
16270;SDS011;8243;49.048;8.396;2023-02-15T04:49:54;48.43;;;18.37;;
16270;SDS011;8243;49.048;8.396;2023-02-15T04:52:20;33.43;;;18.10;;
16270;SDS011;8243;49.048;8.396;2023-02-15T04:54:45;35.60;;;18.80;;
16270;SDS011;8243;49.048;8.396;2023-02-15T04:57:11;41.20;;;17.97;;
16270;SDS011;8243;49.048;8.396;2023-02-15T04:59:37;41.33;;;19.63;;
16270;SDS011;8243;49.048;8.396;2023-02-15T05:02:03;31.97;;;17.80;;
16270;SDS011;8243;49.048;8.396;2023-02-15T05:04:29;32.43;;;17.03;;
16270;SDS011;8243;49.048;8.396;2023-02-15T05:06:54;28.90;;;17.50;;
16270;SDS011;8243;49.048;8.396;2023-02-15T05:09:20;54.47;;;19.00;;
16270;SDS011;8243;49.048;8.396;2023-02-15T05:11:45;27.17;;;16.47;;
16270;SDS011;8243;49.048;8.396;2023-02-15T05:14:11;31.33;;;17.33;;
16270;SDS011;8243;49.048;8.396;2023-02-15T05:16:37;29.77;;;17.73;;
16270;SDS011;8243;49.048;8.396;2023-02-15T05:19:02;34.23;;;18.33;;
16270;SDS011;8243;49.048;8.396;2023-02-15T05:21:28;31.57;;;17.33;;
16270;SDS011;8243;49.048;8.396;2023-02-15T05:23:53;28.87;;;17.60;;
16270;SDS011;8243;49.048;8.396;2023-02-15T05:26:20;49.27;;;19.53;;
16270;SDS011;8243;49.048;8.396;2023-02-15T05:29:06;42.07;;;19.60;;
16270;SDS011;8243;49.048;8.396;2023-02-15T05:31:33;88.10;;;21.23;;
16270;SDS011;8243;49.048;8.396;2023-02-15T05:33:59;35.80;;;18.00;;
16270;SDS011;8243;49.048;8.396;2023-02-15T05:36:25;41.27;;;19.10;;
16270;SDS011;8243;49.048;8.396;2023-02-15T05:38:51;35.97;;;18.13;;
16270;SDS011;8243;49.048;8.396;2023-02-15T05:41:16;38.00;;;18.93;;
16270;SDS011;8243;49.048;8.396;2023-02-15T05:43:42;37.17;;;17.30;;
16270;SDS011;8243;49.048;8.396;2023-02-15T05:46:08;30.43;;;18.40;;
16270;SDS011;8243;49.048;8.396;2023-02-15T05:48:34;37.27;;;18.67;;
16270;SDS011;8243;49.048;8.396;2023-02-15T05:51:18;39.57;;;20.37;;
16270;SDS011;8243;49.048;8.396;2023-02-15T05:53:43;37.17;;;19.47;;
16270;SDS011;8243;49.048;8.396;2023-02-15T05:56:10;44.13;;;20.43;;
16270;SDS011;8243;49.048;8.396;2023-02-15T05:58:37;63.27;;;20.33;;
16270;SDS011;8243;49.048;8.396;2023-02-15T06:01:22;48.87;;;20.53;;
16270;SDS011;8243;49.048;8.396;2023-02-15T06:03:47;42.03;;;20.20;;
16270;SDS011;8243;49.048;8.396;2023-02-15T06:06:13;48.80;;;19.50;;
16270;SDS011;8243;49.048;8.396;2023-02-15T06:08:39;38.90;;;18.87;;
16270;SDS011;8243;49.048;8.396;2023-02-15T06:11:05;77.07;;;21.33;;
16270;SDS011;8243;49.048;8.396;2023-02-15T06:13:31;52.97;;;19.50;;
16270;SDS011;8243;49.048;8.396;2023-02-15T06:15:58;46.87;;;18.90;;
16270;SDS011;8243;49.048;8.396;2023-02-15T06:18:23;37.00;;;19.77;;
16270;SDS011;8243;49.048;8.396;2023-02-15T06:20:49;55.43;;;20.50;;
16270;SDS011;8243;49.048;8.396;2023-02-15T06:23:15;51.33;;;19.70;;
16270;SDS011;8243;49.048;8.396;2023-02-15T06:25:41;42.20;;;19.90;;
16270;SDS011;8243;49.048;8.396;2023-02-15T06:28:06;49.90;;;21.07;;
16270;SDS011;8243;49.048;8.396;2023-02-15T06:30:32;73.27;;;21.40;;
16270;SDS011;8243;49.048;8.396;2023-02-15T06:32:57;43.60;;;20.33;;
16270;SDS011;8243;49.048;8.396;2023-02-15T06:35:23;53.33;;;21.43;;
16270;SDS011;8243;49.048;8.396;2023-02-15T06:37:49;94.57;;;21.70;;
16270;SDS011;8243;49.048;8.396;2023-02-15T06:40:15;45.53;;;22.17;;
16270;SDS011;8243;49.048;8.396;2023-02-15T06:42:41;53.70;;;21.40;;
16270;SDS011;8243;49.048;8.396;2023-02-15T06:45:07;47.20;;;21.63;;
16270;SDS011;8243;49.048;8.396;2023-02-15T06:47:34;38.10;;;21.80;;
16270;SDS011;8243;49.048;8.396;2023-02-15T06:49:59;56.73;;;22.43;;
16270;SDS011;8243;49.048;8.396;2023-02-15T06:52:25;37.77;;;20.37;;
16270;SDS011;8243;49.048;8.396;2023-02-15T06:54:51;43.40;;;22.13;;
16270;SDS011;8243;49.048;8.396;2023-02-15T06:57:16;41.90;;;21.03;;
16270;SDS011;8243;49.048;8.396;2023-02-15T06:59:42;44.67;;;20.77;;
16270;SDS011;8243;49.048;8.396;2023-02-15T07:02:08;52.93;;;21.43;;
16270;SDS011;8243;49.048;8.396;2023-02-15T07:04:36;58.67;;;22.00;;
16270;SDS011;8243;49.048;8.396;2023-02-15T07:07:01;73.83;;;22.03;;
16270;SDS011;8243;49.048;8.396;2023-02-15T07:09:27;47.57;;;22.87;;
16270;SDS011;8243;49.048;8.396;2023-02-15T07:11:52;41.27;;;21.47;;
16270;SDS011;8243;49.048;8.396;2023-02-15T07:14:37;36.47;;;20.70;;
16270;SDS011;8243;49.048;8.396;2023-02-15T07:17:02;39.33;;;20.30;;
16270;SDS011;8243;49.048;8.396;2023-02-15T07:19:28;39.13;;;20.23;;
16270;SDS011;8243;49.048;8.396;2023-02-15T07:21:53;43.87;;;21.50;;
16270;SDS011;8243;49.048;8.396;2023-02-15T07:24:19;44.03;;;22.53;;
16270;SDS011;8243;49.048;8.396;2023-02-15T07:26:44;48.73;;;23.23;;
16270;SDS011;8243;49.048;8.396;2023-02-15T07:29:10;43.73;;;21.70;;
16270;SDS011;8243;49.048;8.396;2023-02-15T07:31:35;53.40;;;22.43;;
16270;SDS011;8243;49.048;8.396;2023-02-15T07:34:01;41.27;;;20.90;;
16270;SDS011;8243;49.048;8.396;2023-02-15T07:36:26;45.30;;;21.43;;
16270;SDS011;8243;49.048;8.396;2023-02-15T07:38:52;36.23;;;19.70;;
16270;SDS011;8243;49.048;8.396;2023-02-15T07:41:17;35.77;;;20.20;;
16270;SDS011;8243;49.048;8.396;2023-02-15T07:43:43;37.40;;;19.07;;
16270;SDS011;8243;49.048;8.396;2023-02-15T07:46:11;36.43;;;19.47;;
16270;SDS011;8243;49.048;8.396;2023-02-15T07:48:39;38.70;;;19.77;;
16270;SDS011;8243;49.048;8.396;2023-02-15T07:51:07;37.87;;;19.70;;
16270;SDS011;8243;49.048;8.396;2023-02-15T07:53:33;35.60;;;18.90;;
16270;SDS011;8243;49.048;8.396;2023-02-15T07:56:00;36.80;;;20.17;;
16270;SDS011;8243;49.048;8.396;2023-02-15T07:58:27;38.17;;;19.03;;
16270;SDS011;8243;49.048;8.396;2023-02-15T08:01:12;32.30;;;19.13;;
16270;SDS011;8243;49.048;8.396;2023-02-15T08:03:38;32.10;;;17.87;;
16270;SDS011;8243;49.048;8.396;2023-02-15T08:06:04;33.33;;;17.93;;
16270;SDS011;8243;49.048;8.396;2023-02-15T08:08:30;32.57;;;17.63;;
16270;SDS011;8243;49.048;8.396;2023-02-15T08:13:48;33.77;;;18.97;;
16270;SDS011;8243;49.048;8.396;2023-02-15T08:16:34;37.00;;;19.37;;
16270;SDS011;8243;49.048;8.396;2023-02-15T08:19:05;34.67;;;19.73;;
16270;SDS011;8243;49.048;8.396;2023-02-15T08:21:32;37.10;;;18.57;;
16270;SDS011;8243;49.048;8.396;2023-02-15T08:23:59;44.97;;;20.57;;
16270;SDS011;8243;49.048;8.396;2023-02-15T08:26:25;41.47;;;20.77;;
16270;SDS011;8243;49.048;8.396;2023-02-15T08:28:53;38.33;;;18.77;;
16270;SDS011;8243;49.048;8.396;2023-02-15T08:31:19;37.03;;;20.17;;
16270;SDS011;8243;49.048;8.396;2023-02-15T08:33:45;34.90;;;18.70;;
16270;SDS011;8243;49.048;8.396;2023-02-15T08:36:13;42.07;;;20.17;;
16270;SDS011;8243;49.048;8.396;2023-02-15T08:38:40;37.57;;;20.57;;
16270;SDS011;8243;49.048;8.396;2023-02-15T08:41:10;37.97;;;19.20;;
16270;SDS011;8243;49.048;8.396;2023-02-15T08:43:37;35.13;;;19.77;;
16270;SDS011;8243;49.048;8.396;2023-02-15T08:46:04;40.37;;;19.67;;
16270;SDS011;8243;49.048;8.396;2023-02-15T08:48:33;42.60;;;19.83;;
16270;SDS011;8243;49.048;8.396;2023-02-15T08:51:03;39.97;;;20.30;;
16270;SDS011;8243;49.048;8.396;2023-02-15T08:53:40;38.67;;;21.03;;
16270;SDS011;8243;49.048;8.396;2023-02-15T08:56:07;34.97;;;19.43;;
16270;SDS011;8243;49.048;8.396;2023-02-15T08:58:34;33.50;;;18.97;;
16270;SDS011;8243;49.048;8.396;2023-02-15T09:01:00;37.13;;;19.43;;
16270;SDS011;8243;49.048;8.396;2023-02-15T09:03:27;31.23;;;18.87;;
16270;SDS011;8243;49.048;8.396;2023-02-15T09:05:56;34.90;;;18.60;;
16270;SDS011;8243;49.048;8.396;2023-02-15T09:08:25;35.07;;;20.47;;
16270;SDS011;8243;49.048;8.396;2023-02-15T09:10:51;43.07;;;20.50;;
16270;SDS011;8243;49.048;8.396;2023-02-15T09:13:17;34.93;;;20.50;;
16270;SDS011;8243;49.048;8.396;2023-02-15T09:15:42;32.87;;;19.63;;
16270;SDS011;8243;49.048;8.396;2023-02-15T09:18:08;33.03;;;18.03;;
16270;SDS011;8243;49.048;8.396;2023-02-15T09:20:36;31.37;;;18.70;;
16270;SDS011;8243;49.048;8.396;2023-02-15T09:23:02;29.03;;;18.10;;
16270;SDS011;8243;49.048;8.396;2023-02-15T09:25:28;29.73;;;18.20;;
16270;SDS011;8243;49.048;8.396;2023-02-15T09:27:53;27.23;;;17.00;;
16270;SDS011;8243;49.048;8.396;2023-02-15T09:30:19;25.93;;;17.00;;
16270;SDS011;8243;49.048;8.396;2023-02-15T09:32:44;27.43;;;17.13;;
16270;SDS011;8243;49.048;8.396;2023-02-15T09:35:11;25.17;;;16.37;;
16270;SDS011;8243;49.048;8.396;2023-02-15T09:37:37;24.03;;;15.80;;
16270;SDS011;8243;49.048;8.396;2023-02-15T09:40:03;25.87;;;16.80;;
16270;SDS011;8243;49.048;8.396;2023-02-15T09:56:00;23.97;;;16.97;;
16270;SDS011;8243;49.048;8.396;2023-02-15T10:01:21;24.97;;;15.27;;
16270;SDS011;8243;49.048;8.396;2023-02-15T10:09:30;23.33;;;15.67;;
16270;SDS011;8243;49.048;8.396;2023-02-15T10:17:32;26.93;;;17.23;;
16270;SDS011;8243;49.048;8.396;2023-02-15T10:20:37;24.93;;;16.53;;
16270;SDS011;8243;49.048;8.396;2023-02-15T10:26:21;28.23;;;17.53;;
16270;SDS011;8243;49.048;8.396;2023-02-15T10:28:53;27.07;;;16.97;;
16270;SDS011;8243;49.048;8.396;2023-02-15T10:31:28;28.97;;;18.10;;
16270;SDS011;8243;49.048;8.396;2023-02-15T10:40:07;26.90;;;18.00;;
16270;SDS011;8243;49.048;8.396;2023-02-15T10:42:53;27.53;;;17.30;;
16270;SDS011;8243;49.048;8.396;2023-02-15T10:56:19;28.30;;;18.40;;
16270;SDS011;8243;49.048;8.396;2023-02-15T10:59:02;30.30;;;17.37;;
16270;SDS011;8243;49.048;8.396;2023-02-15T11:01:37;33.03;;;20.60;;
16270;SDS011;8243;49.048;8.396;2023-02-15T11:04:23;30.80;;;19.23;;
16270;SDS011;8243;49.048;8.396;2023-02-15T11:06:59;28.27;;;17.83;;
16270;SDS011;8243;49.048;8.396;2023-02-15T11:09:33;28.00;;;18.67;;
16270;SDS011;8243;49.048;8.396;2023-02-15T11:12:04;28.10;;;19.77;;
16270;SDS011;8243;49.048;8.396;2023-02-15T11:14:48;29.93;;;20.90;;
16270;SDS011;8243;49.048;8.396;2023-02-15T11:17:23;26.50;;;17.93;;
16270;SDS011;8243;49.048;8.396;2023-02-15T11:22:53;25.97;;;17.43;;
16270;SDS011;8243;49.048;8.396;2023-02-15T11:25:28;25.80;;;19.10;;
16270;SDS011;8243;49.048;8.396;2023-02-15T11:27:56;29.00;;;21.43;;
16270;SDS011;8243;49.048;8.396;2023-02-15T11:30:23;29.87;;;21.37;;
16270;SDS011;8243;49.048;8.396;2023-02-15T11:32:56;26.20;;;17.70;;
16270;SDS011;8243;49.048;8.396;2023-02-15T11:35:31;24.53;;;17.10;;
16270;SDS011;8243;49.048;8.396;2023-02-15T11:40:58;24.57;;;17.00;;
16270;SDS011;8243;49.048;8.396;2023-02-15T11:46:29;26.33;;;16.80;;
16270;SDS011;8243;49.048;8.396;2023-02-15T11:48:54;24.43;;;16.93;;
16270;SDS011;8243;49.048;8.396;2023-02-15T11:51:20;25.97;;;17.33;;
16270;SDS011;8243;49.048;8.396;2023-02-15T11:53:48;27.67;;;17.80;;
16270;SDS011;8243;49.048;8.396;2023-02-15T11:56:18;25.57;;;18.13;;
16270;SDS011;8243;49.048;8.396;2023-02-15T11:58:51;26.50;;;17.73;;
16270;SDS011;8243;49.048;8.396;2023-02-15T12:01:28;28.87;;;17.43;;
16270;SDS011;8243;49.048;8.396;2023-02-15T12:03:59;27.23;;;19.10;;
16270;SDS011;8243;49.048;8.396;2023-02-15T12:06:34;25.20;;;17.20;;
16270;SDS011;8243;49.048;8.396;2023-02-15T12:09:13;24.43;;;18.07;;
16270;SDS011;8243;49.048;8.396;2023-02-15T12:11:49;24.70;;;17.67;;
16270;SDS011;8243;49.048;8.396;2023-02-15T12:14:14;23.00;;;17.50;;
16270;SDS011;8243;49.048;8.396;2023-02-15T12:16:48;25.47;;;17.73;;
16270;SDS011;8243;49.048;8.396;2023-02-15T12:22:21;25.33;;;17.80;;
16270;SDS011;8243;49.048;8.396;2023-02-15T12:24:49;25.47;;;18.27;;
16270;SDS011;8243;49.048;8.396;2023-02-15T12:27:24;25.63;;;17.97;;
16270;SDS011;8243;49.048;8.396;2023-02-15T12:30:01;26.40;;;17.33;;
16270;SDS011;8243;49.048;8.396;2023-02-15T12:32:49;25.10;;;17.50;;
16270;SDS011;8243;49.048;8.396;2023-02-15T12:35:28;25.30;;;17.37;;
16270;SDS011;8243;49.048;8.396;2023-02-15T12:40:36;24.40;;;16.63;;
16270;SDS011;8243;49.048;8.396;2023-02-15T12:43:03;24.23;;;15.37;;
16270;SDS011;8243;49.048;8.396;2023-02-15T12:45:35;26.23;;;17.03;;
16270;SDS011;8243;49.048;8.396;2023-02-15T12:48:15;23.17;;;15.30;;
16270;SDS011;8243;49.048;8.396;2023-02-15T12:50:45;25.37;;;17.37;;
16270;SDS011;8243;49.048;8.396;2023-02-15T12:53:18;24.00;;;16.77;;
16270;SDS011;8243;49.048;8.396;2023-02-15T12:55:52;25.47;;;17.20;;
16270;SDS011;8243;49.048;8.396;2023-02-15T12:58:23;24.00;;;18.00;;
16270;SDS011;8243;49.048;8.396;2023-02-15T13:03:37;24.30;;;17.00;;
16270;SDS011;8243;49.048;8.396;2023-02-15T13:06:16;24.23;;;17.13;;
16270;SDS011;8243;49.048;8.396;2023-02-15T13:08:46;25.53;;;17.03;;
16270;SDS011;8243;49.048;8.396;2023-02-15T13:11:15;23.37;;;16.87;;
16270;SDS011;8243;49.048;8.396;2023-02-15T13:13:54;21.37;;;14.50;;
16270;SDS011;8243;49.048;8.396;2023-02-15T13:16:39;25.70;;;17.60;;
16270;SDS011;8243;49.048;8.396;2023-02-15T13:19:08;23.23;;;15.80;;
16270;SDS011;8243;49.048;8.396;2023-02-15T13:21:50;25.60;;;18.60;;
16270;SDS011;8243;49.048;8.396;2023-02-15T13:24:19;23.93;;;16.47;;
16270;SDS011;8243;49.048;8.396;2023-02-15T13:26:50;23.73;;;15.97;;
16270;SDS011;8243;49.048;8.396;2023-02-15T13:29:23;25.23;;;17.27;;
16270;SDS011;8243;49.048;8.396;2023-02-15T13:31:52;23.90;;;15.07;;
16270;SDS011;8243;49.048;8.396;2023-02-15T13:34:22;25.20;;;17.27;;
16270;SDS011;8243;49.048;8.396;2023-02-15T13:42:46;25.57;;;17.90;;
16270;SDS011;8243;49.048;8.396;2023-02-15T13:45:28;23.87;;;16.77;;
16270;SDS011;8243;49.048;8.396;2023-02-15T13:48:29;22.97;;;16.13;;
16270;SDS011;8243;49.048;8.396;2023-02-15T13:51:24;27.03;;;17.67;;
16270;SDS011;8243;49.048;8.396;2023-02-15T13:59:44;22.90;;;17.17;;
16270;SDS011;8243;49.048;8.396;2023-02-15T14:05:24;24.67;;;17.43;;
16270;SDS011;8243;49.048;8.396;2023-02-15T14:21:40;23.47;;;15.60;;
16270;SDS011;8243;49.048;8.396;2023-02-15T14:24:40;21.17;;;15.43;;
16270;SDS011;8243;49.048;8.396;2023-02-15T14:32:29;22.20;;;15.03;;
16270;SDS011;8243;49.048;8.396;2023-02-15T14:35:01;21.30;;;16.13;;
16270;SDS011;8243;49.048;8.396;2023-02-15T14:37:41;20.03;;;14.50;;
16270;SDS011;8243;49.048;8.396;2023-02-15T14:43:29;19.23;;;14.90;;
16270;SDS011;8243;49.048;8.396;2023-02-15T14:46:18;19.87;;;14.93;;
16270;SDS011;8243;49.048;8.396;2023-02-15T14:48:56;21.07;;;16.03;;
16270;SDS011;8243;49.048;8.396;2023-02-15T14:54:11;21.63;;;16.40;;
16270;SDS011;8243;49.048;8.396;2023-02-15T14:59:37;20.87;;;15.53;;
16270;SDS011;8243;49.048;8.396;2023-02-15T15:04:43;22.37;;;16.37;;
16270;SDS011;8243;49.048;8.396;2023-02-15T15:07:24;23.03;;;16.40;;
16270;SDS011;8243;49.048;8.396;2023-02-15T15:09:58;19.53;;;14.87;;
16270;SDS011;8243;49.048;8.396;2023-02-15T15:12:54;19.00;;;14.97;;
16270;SDS011;8243;49.048;8.396;2023-02-15T15:15:46;18.87;;;14.60;;
16270;SDS011;8243;49.048;8.396;2023-02-15T15:18:42;18.37;;;14.93;;
16270;SDS011;8243;49.048;8.396;2023-02-15T15:21:56;17.90;;;14.90;;
16270;SDS011;8243;49.048;8.396;2023-02-15T15:32:39;17.47;;;14.53;;
16270;SDS011;8243;49.048;8.396;2023-02-15T15:49:15;18.37;;;13.90;;
16270;SDS011;8243;49.048;8.396;2023-02-15T15:51:44;17.00;;;13.70;;
16270;SDS011;8243;49.048;8.396;2023-02-15T15:54:21;18.67;;;14.20;;
16270;SDS011;8243;49.048;8.396;2023-02-15T15:56:52;16.77;;;13.73;;
16270;SDS011;8243;49.048;8.396;2023-02-15T15:59:22;16.57;;;13.03;;
16270;SDS011;8243;49.048;8.396;2023-02-15T16:01:51;18.63;;;14.60;;
16270;SDS011;8243;49.048;8.396;2023-02-15T16:04:24;19.00;;;14.20;;
16270;SDS011;8243;49.048;8.396;2023-02-15T16:06:51;27.20;;;14.10;;
16270;SDS011;8243;49.048;8.396;2023-02-15T16:09:18;18.27;;;13.70;;
16270;SDS011;8243;49.048;8.396;2023-02-15T16:11:57;23.20;;;15.07;;
16270;SDS011;8243;49.048;8.396;2023-02-15T16:14:36;20.07;;;13.87;;
16270;SDS011;8243;49.048;8.396;2023-02-15T16:17:04;21.67;;;14.40;;
16270;SDS011;8243;49.048;8.396;2023-02-15T16:19:37;16.60;;;13.87;;
16270;SDS011;8243;49.048;8.396;2023-02-15T16:22:08;18.00;;;14.90;;
16270;SDS011;8243;49.048;8.396;2023-02-15T16:29:47;29.40;;;20.00;;
16270;SDS011;8243;49.048;8.396;2023-02-15T16:34:51;30.23;;;19.40;;
16270;SDS011;8243;49.048;8.396;2023-02-15T16:37:18;32.80;;;20.97;;
16270;SDS011;8243;49.048;8.396;2023-02-15T16:39:48;29.33;;;20.17;;
16270;SDS011;8243;49.048;8.396;2023-02-15T16:42:15;29.73;;;19.47;;
16270;SDS011;8243;49.048;8.396;2023-02-15T16:44:42;30.27;;;19.90;;
16270;SDS011;8243;49.048;8.396;2023-02-15T16:47:13;26.27;;;19.30;;
16270;SDS011;8243;49.048;8.396;2023-02-15T16:49:46;27.67;;;19.70;;
16270;SDS011;8243;49.048;8.396;2023-02-15T16:52:21;29.53;;;20.63;;
16270;SDS011;8243;49.048;8.396;2023-02-15T16:54:58;32.60;;;20.97;;
16270;SDS011;8243;49.048;8.396;2023-02-15T16:57:27;40.57;;;26.83;;
16270;SDS011;8243;49.048;8.396;2023-02-15T17:00:06;41.77;;;27.53;;
16270;SDS011;8243;49.048;8.396;2023-02-15T17:02:33;34.40;;;21.53;;
16270;SDS011;8243;49.048;8.396;2023-02-15T17:07:51;29.63;;;20.63;;
16270;SDS011;8243;49.048;8.396;2023-02-15T17:21:52;34.00;;;24.80;;
16270;SDS011;8243;49.048;8.396;2023-02-15T17:24:20;33.27;;;21.97;;
16270;SDS011;8243;49.048;8.396;2023-02-15T17:27:27;30.47;;;20.83;;
16270;SDS011;8243;49.048;8.396;2023-02-15T17:29:56;28.90;;;20.93;;
16270;SDS011;8243;49.048;8.396;2023-02-15T17:32:25;25.07;;;18.47;;
16270;SDS011;8243;49.048;8.396;2023-02-15T17:37:29;26.40;;;18.97;;
16270;SDS011;8243;49.048;8.396;2023-02-15T17:40:22;27.57;;;19.80;;
16270;SDS011;8243;49.048;8.396;2023-02-15T17:42:53;26.43;;;17.70;;
16270;SDS011;8243;49.048;8.396;2023-02-15T17:45:19;27.97;;;21.50;;
16270;SDS011;8243;49.048;8.396;2023-02-15T17:47:46;27.33;;;19.80;;
16270;SDS011;8243;49.048;8.396;2023-02-15T17:50:20;28.30;;;19.57;;
16270;SDS011;8243;49.048;8.396;2023-02-15T17:52:47;32.23;;;22.60;;
16270;SDS011;8243;49.048;8.396;2023-02-15T17:55:15;30.50;;;21.10;;
16270;SDS011;8243;49.048;8.396;2023-02-15T17:58:07;28.47;;;20.80;;